createdAt,value
2022-08-17T00:03:55.508Z,19.30
2022-08-17T00:14:08.484Z,20.80
2022-08-17T00:24:16.211Z,17.80
2022-08-17T00:34:25.676Z,18.90
2022-08-17T00:44:35.183Z,19.90
2022-08-17T00:54:46.011Z,18.50
2022-08-17T01:04:56.083Z,18.70
2022-08-17T01:15:03.380Z,17.60
2022-08-17T01:25:12.748Z,16.90
2022-08-17T01:35:18.384Z,17.70
2022-08-17T01:45:22.658Z,18.00
2022-08-17T01:55:27.763Z,19.30
2022-08-17T02:05:33.173Z,18.60
2022-08-17T02:15:41.730Z,18.20
2022-08-17T02:35:54.996Z,18.70
2022-08-17T02:46:02.040Z,16.80
2022-08-17T02:56:09.639Z,17.50
2022-08-17T03:06:16.830Z,21.90
2022-08-17T03:16:23.798Z,22.40
2022-08-17T03:26:32.510Z,20.50
2022-08-17T03:36:39.519Z,20.10
2022-08-17T03:47:04.184Z,18.20
2022-08-17T03:57:13.235Z,18.90
2022-08-17T04:07:19.398Z,18.50
2022-08-17T04:17:23.477Z,17.60
2022-08-17T04:27:30.724Z,17.30
2022-08-17T04:37:37.669Z,17.10
2022-08-17T04:47:44.706Z,20.50
2022-08-17T04:57:50.934Z,19.20
2022-08-17T05:07:59.494Z,17.40
2022-08-17T05:18:05.556Z,18.30
2022-08-17T05:28:13.579Z,17.40
2022-08-17T05:38:23.201Z,21.30
2022-08-17T05:48:39.059Z,19.30
2022-08-17T05:58:49.034Z,16.70
2022-08-17T06:08:55.250Z,16.90
2022-08-17T06:19:00.009Z,17.70
2022-08-17T06:29:18.564Z,15.70
2022-08-17T06:39:36.228Z,16.40
2022-08-17T06:49:47.866Z,16.00
2022-08-17T07:00:00.388Z,17.00
2022-08-17T07:10:10.522Z,16.60
2022-08-17T07:20:21.531Z,16.10
2022-08-17T07:30:31.283Z,15.80
2022-08-17T07:41:00.280Z,16.20
2022-08-17T07:51:16.192Z,15.20
2022-08-17T08:01:23.352Z,14.00
2022-08-17T08:11:41.269Z,13.10
2022-08-17T08:22:00.159Z,13.70
2022-08-17T08:32:09.762Z,13.30
2022-08-17T08:42:19.416Z,13.40
2022-08-17T08:52:30.946Z,14.00
2022-08-17T09:03:04.221Z,12.30
2022-08-17T09:13:20.276Z,12.60
2022-08-17T09:23:27.160Z,13.70
2022-08-17T09:33:39.236Z,12.50
2022-08-17T09:43:50.762Z,14.20
2022-08-17T09:54:14.756Z,13.20
2022-08-17T10:04:32.812Z,14.60
2022-08-17T10:14:55.089Z,14.30
2022-08-17T10:25:24.816Z,12.20
2022-08-17T10:35:40.757Z,14.50
2022-08-17T10:45:48.443Z,12.70
2022-08-17T10:56:21.885Z,11.10
2022-08-17T11:06:36.377Z,12.10
2022-08-17T11:16:43.220Z,12.10
2022-08-17T11:27:02.431Z,11.50
2022-08-17T11:37:25.467Z,12.60
2022-08-17T11:48:08.938Z,11.40
2022-08-17T11:58:37.472Z,11.90
2022-08-17T12:08:50.745Z,10.30
2022-08-17T12:19:04.073Z,9.00
2022-08-17T12:29:18.448Z,10.00
